createdAt,value
2019-02-10T00:01:51.100Z,10.03
2019-02-10T00:04:19.663Z,13.90
2019-02-10T00:06:48.185Z,14.13
2019-02-10T00:09:16.694Z,12.40
2019-02-10T00:11:45.193Z,12.70
2019-02-10T00:14:13.701Z,13.97
2019-02-10T00:16:42.430Z,12.50
2019-02-10T00:19:11.010Z,12.50
2019-02-10T00:21:39.551Z,14.23
2019-02-10T00:24:08.213Z,10.50
2019-02-10T00:26:36.719Z,13.40
2019-02-10T00:29:05.349Z,11.77
2019-02-10T00:31:33.972Z,11.20
2019-02-10T00:34:02.482Z,12.63
2019-02-10T00:36:33.292Z,10.13
2019-02-10T00:39:01.431Z,13.07
2019-02-10T00:41:29.969Z,12.30
2019-02-10T00:43:58.446Z,11.83
2019-02-10T00:46:26.952Z,10.03
2019-02-10T00:48:55.595Z,12.17
2019-02-10T00:51:24.999Z,12.43
2019-02-10T00:53:53.484Z,11.57
2019-02-10T00:56:21.988Z,10.90
2019-02-10T00:58:53.162Z,12.57
2019-02-10T01:01:21.724Z,10.87
2019-02-10T01:03:50.203Z,12.40
2019-02-10T01:06:18.713Z,19.53
2019-02-10T01:08:47.185Z,15.73
2019-02-10T07:28:16.848Z,8.50
2019-02-10T07:30:50.481Z,9.30
2019-02-10T07:33:49.661Z,9.83
2019-02-10T07:36:47.311Z,5.33
2019-02-10T07:40:04.143Z,6.57
2019-02-10T07:42:52.419Z,5.90
2019-02-10T07:45:50.091Z,6.80
2019-02-10T07:48:52.368Z,7.33
2019-02-10T07:51:41.191Z,7.93
2019-02-10T07:54:18.781Z,13.87
2019-02-10T07:56:56.996Z,5.17
2019-02-10T07:59:51.985Z,6.93
2019-02-10T08:02:40.507Z,6.60
2019-02-10T08:05:46.581Z,6.10
2019-02-10T08:08:57.295Z,5.83
2019-02-10T08:11:48.231Z,4.77
2019-02-10T08:14:50.768Z,6.67
2019-02-10T08:17:46.588Z,5.57
2019-02-10T08:20:52.710Z,5.67
2019-02-10T08:23:31.355Z,5.83
2019-02-10T08:26:24.579Z,5.83
2019-02-10T08:29:43.621Z,4.20
2019-02-10T08:32:35.048Z,6.13
2019-02-10T08:35:46.803Z,8.73
2019-02-10T08:38:34.247Z,5.93
2019-02-10T08:41:24.925Z,5.57
2019-02-10T08:44:16.244Z,6.27
2019-02-10T08:46:56.695Z,4.30
2019-02-10T08:49:57.174Z,4.53
2019-02-10T08:52:37.079Z,4.83
2019-02-10T08:55:06.130Z,5.60
2019-02-10T08:57:34.613Z,7.17
2019-02-10T09:00:03.119Z,5.27
2019-02-10T09:02:31.636Z,12.07
2019-02-10T09:05:00.277Z,9.03
2019-02-10T09:07:28.814Z,11.73
2019-02-10T09:09:57.333Z,10.90
2019-02-10T09:12:26.108Z,7.50
2019-02-10T09:14:54.578Z,10.18
2019-02-10T09:17:23.076Z,13.50
2019-02-10T09:19:51.585Z,11.87
2019-02-10T09:22:20.072Z,11.03
2019-02-10T09:24:48.683Z,8.97
2019-02-10T09:27:17.199Z,7.20
2019-02-10T09:29:45.709Z,5.53
2019-02-10T09:32:14.229Z,7.60
2019-02-10T09:34:42.723Z,7.60
2019-02-10T09:37:11.232Z,7.97
2019-02-10T09:39:39.745Z,7.67
2019-02-10T09:42:08.235Z,5.73
2019-02-10T09:44:37.126Z,7.30
2019-02-10T09:47:05.595Z,5.10
2019-02-10T09:49:34.109Z,9.37
2019-02-10T09:52:02.587Z,6.63
2019-02-10T09:54:31.127Z,12.70
2019-02-10T09:56:59.608Z,10.00
2019-02-10T09:59:28.105Z,8.23
2019-02-10T10:01:56.629Z,10.40
2019-02-10T10:04:25.124Z,8.55
2019-02-10T10:06:53.616Z,9.33
2019-02-10T10:09:22.136Z,9.53
2019-02-10T10:11:50.625Z,16.63
2019-02-10T10:14:19.775Z,10.07
2019-02-10T10:16:48.400Z,6.40
2019-02-10T10:19:16.906Z,9.00
2019-02-10T10:21:45.387Z,10.93
2019-02-10T10:24:13.907Z,9.13
2019-02-10T10:26:42.396Z,5.57
2019-02-10T10:29:10.891Z,5.43
2019-02-10T10:31:39.603Z,9.47
2019-02-10T10:34:08.196Z,7.60
2019-02-10T10:36:36.711Z,6.87
2019-02-10T10:39:06.441Z,6.60
2019-02-10T10:41:34.958Z,5.57
2019-02-10T10:44:03.426Z,5.53
2019-02-10T10:46:31.907Z,6.83
2019-02-10T10:49:00.600Z,8.00
2019-02-10T10:51:29.137Z,7.97
2019-02-10T10:53:57.612Z,9.27
2019-02-10T10:56:26.111Z,8.27
2019-02-10T10:58:54.613Z,11.83
2019-02-10T11:01:25.419Z,6.77
2019-02-10T11:03:53.316Z,6.53
2019-02-10T11:06:21.788Z,4.77
2019-02-10T11:08:50.290Z,7.97
2019-02-10T11:11:18.781Z,5.43
2019-02-10T11:13:48.302Z,4.90
2019-02-10T11:16:16.753Z,6.07
2019-02-10T11:18:45.243Z,5.53
2019-02-10T11:21:13.782Z,3.87
2019-02-10T11:23:42.644Z,4.53
2019-02-10T11:26:11.371Z,6.37
2019-02-10T11:28:39.871Z,8.17
2019-02-10T11:31:08.367Z,5.27
2019-02-10T11:33:36.861Z,7.43
2019-02-10T11:36:05.353Z,5.90
2019-02-10T11:38:33.845Z,5.83
2019-02-10T11:41:02.342Z,6.50
2019-02-10T11:43:30.875Z,5.07
2019-02-10T11:45:59.372Z,4.43
2019-02-10T11:48:28.041Z,5.23
2019-02-10T11:50:56.596Z,5.97
2019-02-10T11:53:25.489Z,6.20
2019-02-10T11:55:54.063Z,4.07
2019-02-10T11:58:22.541Z,6.03
2019-02-10T12:00:51.024Z,6.43
2019-02-10T12:03:19.524Z,4.43
2019-02-10T12:05:48.711Z,5.23
2019-02-10T12:08:17.188Z,4.07
2019-02-10T12:10:45.737Z,4.00
2019-02-10T12:13:14.364Z,6.30
2019-02-10T12:15:42.839Z,6.60
2019-02-10T12:18:11.366Z,2.60
2019-02-10T12:20:39.816Z,5.83
2019-02-10T12:23:08.332Z,5.47
2019-02-10T12:25:37.054Z,4.30
2019-02-10T12:28:05.528Z,5.37
2019-02-10T12:30:34.006Z,4.83
2019-02-10T12:33:02.797Z,4.73
2019-02-10T12:35:31.275Z,4.83
2019-02-10T12:37:59.775Z,4.70
2019-02-10T12:40:28.301Z,3.97
2019-02-10T12:42:56.796Z,5.33
2019-02-10T12:45:25.273Z,3.43
2019-02-10T12:47:53.795Z,3.80
2019-02-10T12:50:22.285Z,4.83
2019-02-10T12:52:50.759Z,3.07
2019-02-10T12:55:19.387Z,4.20
2019-02-10T12:57:47.871Z,5.83
2019-02-10T13:00:16.725Z,5.10
2019-02-10T13:02:45.237Z,4.07
2019-02-10T13:05:13.727Z,6.73
2019-02-10T13:07:42.255Z,4.80
2019-02-10T13:10:11.656Z,3.50
2019-02-10T13:12:40.136Z,3.57
2019-02-10T13:15:08.890Z,3.67
2019-02-10T13:17:37.367Z,3.57
2019-02-10T13:20:07.050Z,3.97
2019-02-10T13:22:35.558Z,3.00
2019-02-10T13:25:04.203Z,4.70
2019-02-10T13:27:32.706Z,4.47
2019-02-10T13:30:01.208Z,4.57
2019-02-10T13:32:29.687Z,4.10
2019-02-10T13:34:58.443Z,3.57
2019-02-10T13:37:26.916Z,4.70
2019-02-10T13:39:55.403Z,3.87
2019-02-10T13:42:23.932Z,5.07
2019-02-10T13:44:52.449Z,2.77
2019-02-10T13:47:20.922Z,3.53
2019-02-10T13:49:49.407Z,3.07
2019-02-10T13:52:17.959Z,3.63
2019-02-10T13:54:46.867Z,3.73
2019-02-10T13:57:15.339Z,3.53
2019-02-10T13:59:43.851Z,4.30
2019-02-10T14:02:12.357Z,2.60
2019-02-10T14:04:40.866Z,3.60
2019-02-10T14:07:09.359Z,2.33
2019-02-10T14:09:37.880Z,2.87
2019-02-10T14:12:06.367Z,3.43
2019-02-10T14:14:34.925Z,2.93
2019-02-10T14:17:03.424Z,3.60
2019-02-10T14:19:31.952Z,2.73
2019-02-10T14:22:00.451Z,2.73
2019-02-10T14:24:28.955Z,4.30
2019-02-10T14:26:57.468Z,3.07
2019-02-10T14:29:25.967Z,3.17
2019-02-10T14:31:54.448Z,2.00
2019-02-10T14:34:22.923Z,3.77
2019-02-10T14:36:51.395Z,4.40
2019-02-10T14:39:19.895Z,4.70
2019-02-10T14:41:48.377Z,4.60
2019-02-10T14:44:16.873Z,3.73
2019-02-10T14:46:45.732Z,2.93
2019-02-10T14:49:14.230Z,2.80
2019-02-10T14:51:42.708Z,3.40
2019-02-10T14:54:11.488Z,2.87
2019-02-10T14:56:39.992Z,3.53
2019-02-10T14:59:08.479Z,2.33
2019-02-10T15:01:37.216Z,3.03
2019-02-10T15:04:06.519Z,2.73
2019-02-10T15:06:34.992Z,2.20
2019-02-10T15:09:06.368Z,2.70
2019-02-10T15:11:34.847Z,3.63
2019-02-10T15:14:03.335Z,3.73
2019-02-10T15:16:31.851Z,3.10
2019-02-10T15:19:00.372Z,3.67
2019-02-10T15:21:28.850Z,2.63
2019-02-10T15:23:57.323Z,3.17
2019-02-10T15:26:26.008Z,2.33
2019-02-10T15:28:54.496Z,3.33
2019-02-10T15:31:23.048Z,2.70
2019-02-10T15:33:51.641Z,5.40
2019-02-10T15:36:20.141Z,6.50
2019-02-10T15:38:48.667Z,2.37
2019-02-10T15:41:17.185Z,4.77
2019-02-10T15:43:45.680Z,6.10
2019-02-10T15:46:14.160Z,3.97
2019-02-10T15:48:42.691Z,2.70
